sensor_id;sensor_type;location;lat;lon;timestamp;temperature;humidity
50957;DHT22;55361;50.876;20.634;2022-08-01T00:00:13;23;85
50957;DHT22;55361;50.876;20.634;2022-08-01T00:07:04;23;85
50957;DHT22;55361;50.876;20.634;2022-08-01T00:14:04;23;85
50957;DHT22;55361;50.876;20.634;2022-08-01T00:21:06;23;85
50957;DHT22;55361;50.876;20.634;2022-08-01T00:28:22;23;85
50957;DHT22;55361;50.876;20.634;2022-08-01T00:35:17;24;81
50957;DHT22;55361;50.876;20.634;2022-08-01T00:42:15;24;81
50957;DHT22;55361;50.876;20.634;2022-08-01T00:49:18;24;81
50957;DHT22;55361;50.876;20.634;2022-08-01T00:56:05;24;81
50957;DHT22;55361;50.876;20.634;2022-08-01T01:00:22;24;81
50957;DHT22;55361;50.876;20.634;2022-08-01T01:07:40;23;84
50957;DHT22;55361;50.876;20.634;2022-08-01T01:14:21;23;84
50957;DHT22;55361;50.876;20.634;2022-08-01T01:28:29;23;84
50957;DHT22;55361;50.876;20.634;2022-08-01T01:35:24;24;87
50957;DHT22;55361;50.876;20.634;2022-08-01T01:42:30;24;87
50957;DHT22;55361;50.876;20.634;2022-08-01T01:49:31;24;87
50957;DHT22;55361;50.876;20.634;2022-08-01T01:56:20;24;87
50957;DHT22;55361;50.876;20.634;2022-08-01T02:00:11;24;87
50957;DHT22;55361;50.876;20.634;2022-08-01T02:07:30;23;87
50957;DHT22;55361;50.876;20.634;2022-08-01T02:14:15;23;87
50957;DHT22;55361;50.876;20.634;2022-08-01T02:21:47;23;87
50957;DHT22;55361;50.876;20.634;2022-08-01T02:28:26;23;87
50957;DHT22;55361;50.876;20.634;2022-08-01T02:35:35;23;88
50957;DHT22;55361;50.876;20.634;2022-08-01T02:42:28;23;88
50957;DHT22;55361;50.876;20.634;2022-08-01T02:49:45;23;88
50957;DHT22;55361;50.876;20.634;2022-08-01T02:56:10;23;88
50957;DHT22;55361;50.876;20.634;2022-08-01T03:00:23;23;88
50957;DHT22;55361;50.876;20.634;2022-08-01T03:07:06;22;89
50957;DHT22;55361;50.876;20.634;2022-08-01T03:14:13;22;89
50957;DHT22;55361;50.876;20.634;2022-08-01T03:21:06;22;89
50957;DHT22;55361;50.876;20.634;2022-08-01T03:28:12;22;89
50957;DHT22;55361;50.876;20.634;2022-08-01T03:35:21;23;87
50957;DHT22;55361;50.876;20.634;2022-08-01T03:42:32;23;87
50957;DHT22;55361;50.876;20.634;2022-08-01T03:49:20;23;87
50957;DHT22;55361;50.876;20.634;2022-08-01T03:56:32;23;87
50957;DHT22;55361;50.876;20.634;2022-08-01T04:00:09;23;87
50957;DHT22;55361;50.876;20.634;2022-08-01T04:07:39;24;86
50957;DHT22;55361;50.876;20.634;2022-08-01T04:14:05;24;86
50957;DHT22;55361;50.876;20.634;2022-08-01T04:21:29;24;86
50957;DHT22;55361;50.876;20.634;2022-08-01T04:28:23;24;86
50957;DHT22;55361;50.876;20.634;2022-08-01T04:35:09;24;86
50957;DHT22;55361;50.876;20.634;2022-08-01T04:42:11;24;86
50957;DHT22;55361;50.876;20.634;2022-08-01T04:49:04;24;86
50957;DHT22;55361;50.876;20.634;2022-08-01T04:56:18;24;86
50957;DHT22;55361;50.876;20.634;2022-08-01T05:00:05;24;86
50957;DHT22;55361;50.876;20.634;2022-08-01T05:07:02;23;87
50957;DHT22;55361;50.876;20.634;2022-08-01T05:14:16;23;87
50957;DHT22;55361;50.876;20.634;2022-08-01T05:21:08;23;87
50957;DHT22;55361;50.876;20.634;2022-08-01T05:28:06;23;87
50957;DHT22;55361;50.876;20.634;2022-08-01T05:35:21;23;88
50957;DHT22;55361;50.876;20.634;2022-08-01T05:42:18;23;88
50957;DHT22;55361;50.876;20.634;2022-08-01T05:49:21;23;88
50957;DHT22;55361;50.876;20.634;2022-08-01T05:56:05;23;88
50957;DHT22;55361;50.876;20.634;2022-08-01T06:00:20;23;88
50957;DHT22;55361;50.876;20.634;2022-08-01T06:07:02;22;91
50957;DHT22;55361;50.876;20.634;2022-08-01T06:14:16;22;91
50957;DHT22;55361;50.876;20.634;2022-08-01T06:21:18;22;91
50957;DHT22;55361;50.876;20.634;2022-08-01T06:28:17;22;91
50957;DHT22;55361;50.876;20.634;2022-08-01T06:35:17;23;89
50957;DHT22;55361;50.876;20.634;2022-08-01T06:42:17;23;89
50957;DHT22;55361;50.876;20.634;2022-08-01T06:49:22;23;89
50957;DHT22;55361;50.876;20.634;2022-08-01T06:56:22;23;89
50957;DHT22;55361;50.876;20.634;2022-08-01T07:00:24;23;89
50957;DHT22;55361;50.876;20.634;2022-08-01T07:14:03;23;90
50957;DHT22;55361;50.876;20.634;2022-08-01T07:21:18;23;90
50957;DHT22;55361;50.876;20.634;2022-08-01T07:28:04;23;90
50957;DHT22;55361;50.876;20.634;2022-08-01T07:42:14;22;91
50957;DHT22;55361;50.876;20.634;2022-08-01T07:49:02;22;91
50957;DHT22;55361;50.876;20.634;2022-08-01T07:56:07;22;91
50957;DHT22;55361;50.876;20.634;2022-08-01T08:00:13;22;91
50957;DHT22;55361;50.876;20.634;2022-08-01T08:14:19;22;92
50957;DHT22;55361;50.876;20.634;2022-08-01T08:21:17;22;92
50957;DHT22;55361;50.876;20.634;2022-08-01T08:28:14;22;92
50957;DHT22;55361;50.876;20.634;2022-08-01T08:35:09;22;92
50957;DHT22;55361;50.876;20.634;2022-08-01T08:42:25;22;91
50957;DHT22;55361;50.876;20.634;2022-08-01T08:49:30;22;91
50957;DHT22;55361;50.876;20.634;2022-08-01T08:56:35;22;91
50957;DHT22;55361;50.876;20.634;2022-08-01T09:00:05;22;91
50957;DHT22;55361;50.876;20.634;2022-08-01T09:14:14;22;91
50957;DHT22;55361;50.876;20.634;2022-08-01T09:21:20;22;91
50957;DHT22;55361;50.876;20.634;2022-08-01T09:28:07;22;91
50957;DHT22;55361;50.876;20.634;2022-08-01T09:35:55;22;91
50957;DHT22;55361;50.876;20.634;2022-08-01T09:42:30;22;91
50957;DHT22;55361;50.876;20.634;2022-08-01T09:49:04;22;91
50957;DHT22;55361;50.876;20.634;2022-08-01T09:56:10;22;91
50957;DHT22;55361;50.876;20.634;2022-08-01T10:00:19;22;91
50957;DHT22;55361;50.876;20.634;2022-08-01T10:14:04;22;92
50957;DHT22;55361;50.876;20.634;2022-08-01T10:21:09;22;92
50957;DHT22;55361;50.876;20.634;2022-08-01T10:28:19;22;92
50957;DHT22;55361;50.876;20.634;2022-08-01T10:35:21;22;92
50957;DHT22;55361;50.876;20.634;2022-08-01T10:42:11;22;92
50957;DHT22;55361;50.876;20.634;2022-08-01T10:49:09;22;92
50957;DHT22;55361;50.876;20.634;2022-08-01T10:56:39;22;92
50957;DHT22;55361;50.876;20.634;2022-08-01T11:00:03;22;92
50957;DHT22;55361;50.876;20.634;2022-08-01T11:07:13;22;92
50957;DHT22;55361;50.876;20.634;2022-08-01T11:14:27;22;93
50957;DHT22;55361;50.876;20.634;2022-08-01T11:21:16;22;93
50957;DHT22;55361;50.876;20.634;2022-08-01T11:35:21;22;93
50957;DHT22;55361;50.876;20.634;2022-08-01T11:42:20;21;93
50957;DHT22;55361;50.876;20.634;2022-08-01T11:56:03;21;93
50957;DHT22;55361;50.876;20.634;2022-08-01T12:00:04;21;93
50957;DHT22;55361;50.876;20.634;2022-08-01T12:07:29;21;93
50957;DHT22;55361;50.876;20.634;2022-08-01T12:14:02;21;94
50957;DHT22;55361;50.876;20.634;2022-08-01T12:21:06;21;94
50957;DHT22;55361;50.876;20.634;2022-08-01T12:28:26;21;94
50957;DHT22;55361;50.876;20.634;2022-08-01T12:35:04;21;94
50957;DHT22;55361;50.876;20.634;2022-08-01T12:42:28;22;93
50957;DHT22;55361;50.876;20.634;2022-08-01T12:49:22;22;93
50957;DHT22;55361;50.876;20.634;2022-08-01T12:56:03;22;93
50957;DHT22;55361;50.876;20.634;2022-08-01T13:00:26;22;93
50957;DHT22;55361;50.876;20.634;2022-08-01T13:07:05;22;93
50957;DHT22;55361;50.876;20.634;2022-08-01T13:14:02;23;92
50957;DHT22;55361;50.876;20.634;2022-08-01T13:21:24;23;92
50957;DHT22;55361;50.876;20.634;2022-08-01T13:28:31;23;92
50957;DHT22;55361;50.876;20.634;2022-08-01T13:35:05;23;92
50957;DHT22;55361;50.876;20.634;2022-08-01T13:49:18;24;89
50957;DHT22;55361;50.876;20.634;2022-08-01T13:56:17;24;89
50957;DHT22;55361;50.876;20.634;2022-08-01T14:00:06;24;89
50957;DHT22;55361;50.876;20.634;2022-08-01T14:07:13;24;89
50957;DHT22;55361;50.876;20.634;2022-08-01T14:21:06;24;89
50957;DHT22;55361;50.876;20.634;2022-08-01T14:28:20;24;89
50957;DHT22;55361;50.876;20.634;2022-08-01T14:35:16;24;89
50957;DHT22;55361;50.876;20.634;2022-08-01T14:49:18;24.63;89
50957;DHT22;55361;50.876;20.634;2022-08-01T14:56:19;24.63;89
50957;DHT22;55361;50.876;20.634;2022-08-01T15:00:22;24.63;89
50957;DHT22;55361;50.876;20.634;2022-08-01T15:07:04;24.63;89
50957;DHT22;55361;50.876;20.634;2022-08-01T15:21:19;24.81;88
50957;DHT22;55361;50.876;20.634;2022-08-01T15:28:16;24.81;88
50957;DHT22;55361;50.876;20.634;2022-08-01T15:35:12;24.81;88
50957;DHT22;55361;50.876;20.634;2022-08-01T15:49:18;25;89
50957;DHT22;55361;50.876;20.634;2022-08-01T15:56:04;25;89
50957;DHT22;55361;50.876;20.634;2022-08-01T16:00:06;25;89
50957;DHT22;55361;50.876;20.634;2022-08-01T16:07:18;25;89
50957;DHT22;55361;50.876;20.634;2022-08-01T16:21:08;24;92
50957;DHT22;55361;50.876;20.634;2022-08-01T16:28:03;24;92
50957;DHT22;55361;50.876;20.634;2022-08-01T16:35:06;24;92
50957;DHT22;55361;50.876;20.634;2022-08-01T16:49:14;25;91
50957;DHT22;55361;50.876;20.634;2022-08-01T16:56:06;25;91
50957;DHT22;55361;50.876;20.634;2022-08-01T17:00:21;25;91
50957;DHT22;55361;50.876;20.634;2022-08-01T17:07:16;25;91
50957;DHT22;55361;50.876;20.634;2022-08-01T17:21:02;25;92
50957;DHT22;55361;50.876;20.634;2022-08-01T17:28:04;25;92
50957;DHT22;55361;50.876;20.634;2022-08-01T17:35:18;25;92
50957;DHT22;55361;50.876;20.634;2022-08-01T17:49:19;25.56;88
50957;DHT22;55361;50.876;20.634;2022-08-01T17:56:07;25.56;88
50957;DHT22;55361;50.876;20.634;2022-08-01T18:00:18;25.56;88
50957;DHT22;55361;50.876;20.634;2022-08-01T18:07:19;25.56;88
50957;DHT22;55361;50.876;20.634;2022-08-01T18:21:17;22;70
50957;DHT22;55361;50.876;20.634;2022-08-01T18:28:17;22;70
50957;DHT22;55361;50.876;20.634;2022-08-01T18:35:07;22;70
50957;DHT22;55361;50.876;20.634;2022-08-01T18:49:02;23;70
50957;DHT22;55361;50.876;20.634;2022-08-01T18:56:16;23;70
50957;DHT22;55361;50.876;20.634;2022-08-01T19:00:15;23;70
50957;DHT22;55361;50.876;20.634;2022-08-01T19:07:06;23;70
50957;DHT22;55361;50.876;20.634;2022-08-01T19:21:17;25;87
50957;DHT22;55361;50.876;20.634;2022-08-01T19:28:03;25;87
50957;DHT22;55361;50.876;20.634;2022-08-01T19:35:14;25;87
50957;DHT22;55361;50.876;20.634;2022-08-01T19:42:33;25;87
50957;DHT22;55361;50.876;20.634;2022-08-01T19:49:02;24;90
50957;DHT22;55361;50.876;20.634;2022-08-01T19:56:34;24;90
50957;DHT22;55361;50.876;20.634;2022-08-01T20:00:09;24;90
50957;DHT22;55361;50.876;20.634;2022-08-01T20:07:04;24;90
50957;DHT22;55361;50.876;20.634;2022-08-01T20:21:25;24;90
50957;DHT22;55361;50.876;20.634;2022-08-01T20:28:08;24;90
50957;DHT22;55361;50.876;20.634;2022-08-01T20:35:10;24;90
50957;DHT22;55361;50.876;20.634;2022-08-01T20:42:17;24;90
50957;DHT22;55361;50.876;20.634;2022-08-01T20:49:30;24;91
50957;DHT22;55361;50.876;20.634;2022-08-01T20:56:38;24;91
50957;DHT22;55361;50.876;20.634;2022-08-01T21:00:23;24;91
50957;DHT22;55361;50.876;20.634;2022-08-01T21:07:47;24;91
50957;DHT22;55361;50.876;20.634;2022-08-01T21:21:42;24;88
50957;DHT22;55361;50.876;20.634;2022-08-01T21:28:06;24;88
50957;DHT22;55361;50.876;20.634;2022-08-01T21:35:20;24;88
50957;DHT22;55361;50.876;20.634;2022-08-01T21:42:17;24;88
50957;DHT22;55361;50.876;20.634;2022-08-01T21:49:32;25;88
50957;DHT22;55361;50.876;20.634;2022-08-01T21:56:27;25;88
50957;DHT22;55361;50.876;20.634;2022-08-01T22:00:17;25;88
50957;DHT22;55361;50.876;20.634;2022-08-01T22:07:15;25;88
50957;DHT22;55361;50.876;20.634;2022-08-01T22:14:14;25;88
50957;DHT22;55361;50.876;20.634;2022-08-01T22:21:19;25;88
50957;DHT22;55361;50.876;20.634;2022-08-01T22:28:24;25;88
50957;DHT22;55361;50.876;20.634;2022-08-01T22:35:19;24;89
50957;DHT22;55361;50.876;20.634;2022-08-01T22:42:25;24;89
50957;DHT22;55361;50.876;20.634;2022-08-01T22:56:26;24;89
50957;DHT22;55361;50.876;20.634;2022-08-01T23:00:05;24;89
50957;DHT22;55361;50.876;20.634;2022-08-01T23:07:51;24;88
50957;DHT22;55361;50.876;20.634;2022-08-01T23:14:21;24;88
50957;DHT22;55361;50.876;20.634;2022-08-01T23:21:17;24;88
50957;DHT22;55361;50.876;20.634;2022-08-01T23:28:27;24;88
50957;DHT22;55361;50.876;20.634;2022-08-01T23:35:21;25;85
50957;DHT22;55361;50.876;20.634;2022-08-01T23:42:16;25;85
50957;DHT22;55361;50.876;20.634;2022-08-01T23:49:03;25;85
50957;DHT22;55361;50.876;20.634;2022-08-01T23:56:18;25;85
